createdAt,value
2018-11-02T00:00:54.232Z,9.80
2018-11-02T00:01:59.872Z,9.80
2018-11-02T00:03:05.857Z,9.80
2018-11-02T00:04:11.353Z,9.80
2018-11-02T00:05:17.141Z,9.80
2018-11-02T00:06:22.885Z,9.80
2018-11-02T00:07:28.250Z,9.80
2018-11-02T00:08:36.572Z,9.80
2018-11-02T00:09:42.080Z,9.90
2018-11-02T00:10:47.567Z,9.90
2018-11-02T00:11:53.173Z,9.90
2018-11-02T00:12:59.130Z,9.90
2018-11-02T00:14:04.823Z,9.90
2018-11-02T00:15:10.355Z,9.90
2018-11-02T00:16:15.820Z,9.90
2018-11-02T00:17:21.288Z,9.90
2018-11-02T00:18:26.741Z,9.90
2018-11-02T00:19:33.434Z,9.90
2018-11-02T00:20:38.965Z,9.90
2018-11-02T00:21:44.461Z,9.90
2018-11-02T00:22:49.896Z,10.00
2018-11-02T00:23:55.418Z,10.00
2018-11-02T00:25:00.918Z,9.90
2018-11-02T00:26:06.745Z,10.00
2018-11-02T00:27:12.421Z,10.00
2018-11-02T00:28:17.921Z,10.00
2018-11-02T00:29:23.429Z,10.00
2018-11-02T00:30:28.916Z,10.00
2018-11-02T00:31:34.392Z,9.90
2018-11-02T00:32:40.623Z,10.00
2018-11-02T00:33:46.073Z,10.00
2018-11-02T00:34:51.568Z,10.00
2018-11-02T00:35:57.017Z,10.00
2018-11-02T00:37:02.714Z,10.00
2018-11-02T00:38:08.228Z,10.00
2018-11-02T00:39:13.718Z,10.00
2018-11-02T00:40:19.264Z,10.10
2018-11-02T00:41:24.837Z,10.00
2018-11-02T00:42:30.672Z,10.10
2018-11-02T00:43:36.189Z,10.00
2018-11-02T00:44:41.642Z,10.10
2018-11-02T00:45:47.130Z,10.10
2018-11-02T00:46:52.608Z,10.10
2018-11-02T00:47:58.040Z,10.10
2018-11-02T00:49:04.152Z,10.10
2018-11-02T00:50:11.737Z,10.10
2018-11-02T00:51:17.204Z,10.10
2018-11-02T00:52:22.717Z,10.10
2018-11-02T00:53:28.192Z,10.00
2018-11-02T00:54:33.653Z,10.00
2018-11-02T00:55:39.118Z,10.00
2018-11-02T00:56:44.685Z,10.00
2018-11-02T00:57:50.278Z,10.00
2018-11-02T00:58:56.258Z,10.00
2018-11-02T01:00:02.212Z,10.00
2018-11-02T01:01:07.697Z,10.00
2018-11-02T01:02:13.133Z,10.00
2018-11-02T01:03:18.679Z,10.00
2018-11-02T01:04:24.137Z,10.00
2018-11-02T01:05:29.714Z,10.10
2018-11-02T01:06:35.222Z,10.00
2018-11-02T01:07:40.826Z,10.10
2018-11-02T01:08:46.328Z,10.10
2018-11-02T01:09:51.793Z,10.10
2018-11-02T01:10:57.237Z,10.10
2018-11-02T01:12:02.712Z,10.10
2018-11-02T01:13:08.225Z,10.10
2018-11-02T01:14:13.745Z,10.10
2018-11-02T01:15:19.240Z,10.10
2018-11-02T01:16:24.752Z,10.10
2018-11-02T01:17:30.325Z,10.10
2018-11-02T01:18:35.805Z,10.10
2018-11-02T01:19:41.260Z,10.10
2018-11-02T01:20:46.708Z,10.20
2018-11-02T01:21:52.310Z,10.10
2018-11-02T01:22:57.796Z,10.10
2018-11-02T01:24:03.403Z,10.10
2018-11-02T01:25:09.588Z,10.10
2018-11-02T01:26:15.198Z,10.10
2018-11-02T01:27:20.779Z,10.10
2018-11-02T01:28:26.232Z,10.10
2018-11-02T01:29:31.727Z,10.20
2018-11-02T01:30:37.225Z,10.20
2018-11-02T01:31:42.824Z,10.20
2018-11-02T01:32:48.260Z,10.20
2018-11-02T01:33:53.798Z,10.10
2018-11-02T01:34:59.406Z,10.20
2018-11-02T01:36:05.102Z,10.20
2018-11-02T01:37:10.585Z,10.20
2018-11-02T01:38:16.036Z,10.20
2018-11-02T01:39:21.723Z,10.20
2018-11-02T01:40:27.220Z,10.20
2018-11-02T01:41:32.644Z,10.20
2018-11-02T01:42:38.090Z,10.20
2018-11-02T01:43:43.691Z,10.20
2018-11-02T01:44:49.178Z,10.20
2018-11-02T01:45:54.899Z,10.30
2018-11-02T01:47:00.396Z,10.30
2018-11-02T01:48:06.342Z,10.30
2018-11-02T01:49:11.838Z,10.30
2018-11-02T01:50:17.375Z,10.30
2018-11-02T01:51:22.918Z,10.30
2018-11-02T01:52:28.384Z,10.30
2018-11-02T01:53:33.883Z,10.30
2018-11-02T01:54:39.485Z,10.30
2018-11-02T01:55:44.956Z,10.30
2018-11-02T01:56:50.455Z,10.30
2018-11-02T01:57:55.896Z,10.30
2018-11-02T01:59:01.386Z,10.30
2018-11-02T02:00:08.409Z,10.30
2018-11-02T02:01:13.897Z,10.20
2018-11-02T02:02:19.558Z,10.20
2018-11-02T02:03:25.058Z,10.30
2018-11-02T02:04:30.625Z,10.30
2018-11-02T02:05:36.157Z,10.30
2018-11-02T02:06:41.713Z,10.30
2018-11-02T02:07:47.201Z,10.20
2018-11-02T02:08:52.773Z,10.20
2018-11-02T02:09:58.256Z,10.20
2018-11-02T02:11:03.681Z,10.20
2018-11-02T02:12:09.161Z,10.20
2018-11-02T02:13:14.637Z,10.20
2018-11-02T02:14:20.104Z,10.20
2018-11-02T02:15:25.617Z,10.20
2018-11-02T02:16:31.072Z,10.20
2018-11-02T02:17:36.629Z,10.20
2018-11-02T02:18:42.102Z,10.20
2018-11-02T02:19:47.613Z,10.20
2018-11-02T02:20:53.090Z,10.20
2018-11-02T02:21:58.580Z,10.20
2018-11-02T02:23:04.037Z,10.20
2018-11-02T02:24:09.522Z,10.20
2018-11-02T02:25:15.010Z,10.20
2018-11-02T02:26:20.468Z,10.20
2018-11-02T02:27:25.942Z,10.20
2018-11-02T02:28:31.622Z,10.20
2018-11-02T02:29:37.390Z,10.30
2018-11-02T02:30:42.862Z,10.20
2018-11-02T02:31:48.349Z,10.20
2018-11-02T02:32:53.886Z,10.20
2018-11-02T02:33:59.384Z,10.30
2018-11-02T02:35:04.985Z,10.30
2018-11-02T02:36:10.601Z,10.30
2018-11-02T02:37:16.025Z,10.30
2018-11-02T02:38:21.572Z,10.20
2018-11-02T02:39:27.065Z,10.30
2018-11-02T02:40:32.576Z,10.30
2018-11-02T02:41:38.285Z,10.30
2018-11-02T02:42:43.730Z,10.30
2018-11-02T02:43:49.349Z,10.30
2018-11-02T02:44:54.799Z,10.30
2018-11-02T02:46:00.270Z,10.30
2018-11-02T02:47:05.904Z,10.30
2018-11-02T02:48:11.503Z,10.30
2018-11-02T02:49:16.998Z,10.30
2018-11-02T02:50:22.485Z,10.30
2018-11-02T02:51:27.993Z,10.30
2018-11-02T02:52:33.472Z,10.30
2018-11-02T02:53:38.882Z,10.30
2018-11-02T02:54:44.386Z,10.30
2018-11-02T02:55:49.836Z,10.30
2018-11-02T02:56:55.389Z,10.30
2018-11-02T02:58:00.890Z,10.30
2018-11-02T02:59:06.378Z,10.30
2018-11-02T03:00:13.768Z,10.30
2018-11-02T03:01:19.289Z,10.30
2018-11-02T03:02:24.875Z,10.30
2018-11-02T03:03:30.317Z,10.30
2018-11-02T03:04:37.001Z,10.30
2018-11-02T03:05:42.440Z,10.40
2018-11-02T03:06:47.913Z,10.30
2018-11-02T03:07:53.467Z,10.40
2018-11-02T03:08:58.992Z,10.30
2018-11-02T03:10:04.662Z,10.30
2018-11-02T03:11:10.335Z,10.40
2018-11-02T03:12:15.682Z,10.40
2018-11-02T03:13:21.168Z,10.40
2018-11-02T03:14:26.637Z,10.40
2018-11-02T03:15:32.084Z,10.30
2018-11-02T03:16:37.560Z,10.40
2018-11-02T03:17:43.002Z,10.30
2018-11-02T03:18:48.992Z,10.30
2018-11-02T03:19:54.426Z,10.30
2018-11-02T03:20:59.928Z,10.40
2018-11-02T03:22:05.672Z,10.40
2018-11-02T03:23:11.174Z,10.40
2018-11-02T03:24:16.725Z,10.40
2018-11-02T03:25:22.285Z,10.30
2018-11-02T03:26:27.755Z,10.40
2018-11-02T03:27:33.245Z,10.40
2018-11-02T03:28:38.750Z,10.30
2018-11-02T03:29:44.302Z,10.40
2018-11-02T03:30:49.725Z,10.30
2018-11-02T03:31:55.207Z,10.30
2018-11-02T03:33:00.632Z,10.30
2018-11-02T03:34:06.525Z,10.30
2018-11-02T03:35:12.046Z,10.30
2018-11-02T03:36:17.481Z,10.30
2018-11-02T03:37:22.970Z,10.30
2018-11-02T03:38:28.472Z,10.30
2018-11-02T03:39:33.962Z,10.30
2018-11-02T03:40:39.448Z,10.30
2018-11-02T03:41:44.898Z,10.30
2018-11-02T03:42:50.389Z,10.30
2018-11-02T03:43:55.812Z,10.30
2018-11-02T03:45:01.298Z,10.30
2018-11-02T03:46:07.101Z,10.30
2018-11-02T03:47:12.600Z,10.30
2018-11-02T03:48:18.175Z,10.30
2018-11-02T03:49:23.624Z,10.30
2018-11-02T03:50:29.106Z,10.30
2018-11-02T03:51:34.590Z,10.30
2018-11-02T03:52:40.472Z,10.30
2018-11-02T03:53:46.025Z,10.30
2018-11-02T03:54:51.883Z,10.20
2018-11-02T03:55:57.685Z,10.20
2018-11-02T03:57:03.296Z,10.20
2018-11-02T03:58:08.757Z,10.20
2018-11-02T03:59:14.220Z,10.20
2018-11-02T04:00:20.177Z,10.20
2018-11-02T04:01:25.749Z,10.20
2018-11-02T04:02:31.246Z,10.20
2018-11-02T04:03:36.853Z,10.20
2018-11-02T04:04:42.327Z,10.20
2018-11-02T04:05:47.793Z,10.20
2018-11-02T04:06:53.274Z,10.20
2018-11-02T04:07:58.677Z,10.20
2018-11-02T04:09:04.738Z,10.20
2018-11-02T04:10:11.435Z,10.20
2018-11-02T04:11:16.864Z,10.20
2018-11-02T04:12:22.374Z,10.20
2018-11-02T04:13:27.821Z,10.20
2018-11-02T04:14:33.452Z,10.20
2018-11-02T04:15:43.952Z,10.20
2018-11-02T04:16:49.429Z,10.20
2018-11-02T04:17:54.953Z,10.20
2018-11-02T04:19:00.417Z,10.30
2018-11-02T04:20:07.912Z,10.30
2018-11-02T04:21:13.437Z,10.30
2018-11-02T04:22:19.014Z,10.30
2018-11-02T04:23:24.454Z,10.40
2018-11-02T04:24:29.867Z,10.30
2018-11-02T04:25:35.357Z,10.40
2018-11-02T04:26:41.310Z,10.40
2018-11-02T04:27:46.841Z,10.40
2018-11-02T04:28:52.447Z,10.40
2018-11-02T04:29:59.582Z,10.40
2018-11-02T04:31:05.898Z,10.40
2018-11-02T04:32:11.391Z,10.40
2018-11-02T04:33:16.854Z,10.40
2018-11-02T04:34:22.436Z,10.40
2018-11-02T04:35:28.906Z,10.40
2018-11-02T04:36:34.654Z,10.40
2018-11-02T04:37:40.149Z,10.40
2018-11-02T04:38:45.663Z,10.40
2018-11-02T04:39:51.157Z,10.30
2018-11-02T04:40:56.765Z,10.30
2018-11-02T04:42:02.251Z,10.30
2018-11-02T04:43:07.802Z,10.30
2018-11-02T04:44:13.373Z,10.30
2018-11-02T04:45:22.913Z,10.20
2018-11-02T04:46:32.263Z,10.30
2018-11-02T04:47:42.402Z,10.20
2018-11-02T04:48:56.628Z,10.20
2018-11-02T04:50:05.226Z,10.20
2018-11-02T04:51:10.753Z,10.20
2018-11-02T04:52:16.177Z,10.20
2018-11-02T04:53:21.861Z,10.20
2018-11-02T04:54:27.362Z,10.10
2018-11-02T04:55:32.880Z,10.10
2018-11-02T04:56:38.320Z,10.10
2018-11-02T04:57:43.853Z,10.00
2018-11-02T04:58:49.749Z,10.00
2018-11-02T04:59:55.229Z,10.00
2018-11-02T05:01:00.793Z,10.00
2018-11-02T05:02:06.499Z,9.90
2018-11-02T05:03:11.978Z,9.90
2018-11-02T05:04:17.529Z,9.90
2018-11-02T05:05:23.013Z,9.90
2018-11-02T05:06:28.509Z,9.80
2018-11-02T05:07:33.933Z,9.80
2018-11-02T05:08:39.340Z,9.70
2018-11-02T05:09:45.293Z,9.70
2018-11-02T05:10:50.740Z,9.60
2018-11-02T05:11:56.414Z,9.60
2018-11-02T05:13:01.907Z,9.60
2018-11-02T05:14:07.832Z,9.60
2018-11-02T05:15:13.301Z,9.60
2018-11-02T05:16:18.788Z,9.60
2018-11-02T05:17:24.305Z,9.60
2018-11-02T05:18:30.013Z,9.60
2018-11-02T05:19:35.521Z,9.60
2018-11-02T05:20:40.985Z,9.60
2018-11-02T05:21:46.408Z,9.60
2018-11-02T05:22:51.829Z,9.60
2018-11-02T05:23:57.276Z,9.70
2018-11-02T05:25:02.806Z,9.60
2018-11-02T05:26:08.632Z,9.70
2018-11-02T05:27:14.117Z,9.70
2018-11-02T05:28:19.524Z,9.70
2018-11-02T05:29:25.217Z,9.70
2018-11-02T05:30:30.683Z,9.60
2018-11-02T05:31:36.214Z,9.60
2018-11-02T05:32:41.866Z,9.60
2018-11-02T05:33:47.421Z,9.60
2018-11-02T05:34:52.949Z,9.60
2018-11-02T05:35:58.720Z,9.60
2018-11-02T05:37:04.196Z,9.60
2018-11-02T05:38:09.772Z,9.60
2018-11-02T05:39:15.267Z,9.60
2018-11-02T05:40:20.761Z,9.60
2018-11-02T05:41:26.310Z,9.60
2018-11-02T05:42:31.728Z,9.60
2018-11-02T05:43:37.240Z,9.50
2018-11-02T05:44:42.964Z,9.60
2018-11-02T05:45:48.445Z,9.60
2018-11-02T05:46:53.929Z,9.60
2018-11-02T05:47:59.450Z,9.50
2018-11-02T05:49:04.929Z,9.50
2018-11-02T05:50:10.468Z,9.50
2018-11-02T05:51:15.985Z,9.50
2018-11-02T05:52:21.432Z,9.50
2018-11-02T05:53:26.876Z,9.50
2018-11-02T05:54:32.446Z,9.50
2018-11-02T05:55:37.917Z,9.50
2018-11-02T05:56:43.525Z,9.50
2018-11-02T05:57:49.045Z,9.50
2018-11-02T05:58:54.448Z,9.50
2018-11-02T05:59:59.936Z,9.50
2018-11-02T06:01:06.357Z,9.50
2018-11-02T06:02:11.797Z,9.50
2018-11-02T06:03:17.205Z,9.50
2018-11-02T06:04:22.709Z,9.50
2018-11-02T06:05:28.195Z,9.50
2018-11-02T06:06:33.669Z,9.50
2018-11-02T06:07:39.509Z,9.50
2018-11-02T06:08:44.982Z,9.50
2018-11-02T06:09:50.480Z,9.60
2018-11-02T06:10:55.888Z,9.60
2018-11-02T06:12:01.444Z,9.50
2018-11-02T06:13:07.109Z,9.50
2018-11-02T06:14:12.533Z,9.50
2018-11-02T06:15:18.097Z,9.50
2018-11-02T06:16:23.590Z,9.50
2018-11-02T06:17:29.069Z,9.50
2018-11-02T06:18:34.670Z,9.50
2018-11-02T06:19:40.233Z,9.50
2018-11-02T06:20:45.687Z,9.50
2018-11-02T06:21:51.248Z,9.50
2018-11-02T06:22:56.704Z,9.50
2018-11-02T06:24:02.272Z,9.50
2018-11-02T06:25:08.422Z,9.50
2018-11-02T06:26:13.925Z,9.40
2018-11-02T06:27:19.413Z,9.40
2018-11-02T06:28:25.087Z,9.40
2018-11-02T06:29:30.576Z,9.40
2018-11-02T06:30:36.344Z,9.40
2018-11-02T06:31:43.015Z,9.40
2018-11-02T06:32:49.100Z,9.30
2018-11-02T06:33:54.568Z,9.30
2018-11-02T06:35:00.096Z,9.30
2018-11-02T06:36:05.872Z,9.30
2018-11-02T06:37:11.311Z,9.30
2018-11-02T06:38:16.892Z,9.30
2018-11-02T06:39:22.432Z,9.30
2018-11-02T06:40:28.052Z,9.30
2018-11-02T06:41:33.528Z,9.30
2018-11-02T06:42:39.005Z,9.30
2018-11-02T06:43:44.432Z,9.30
2018-11-02T06:44:49.960Z,9.30
2018-11-02T06:45:55.351Z,9.30
2018-11-02T06:47:00.856Z,9.20
2018-11-02T06:48:06.600Z,9.20
2018-11-02T06:49:12.114Z,9.20
2018-11-02T06:50:17.662Z,9.20
2018-11-02T06:51:23.172Z,9.30
2018-11-02T06:52:28.642Z,9.20
2018-11-02T06:53:34.137Z,9.20
2018-11-02T06:54:39.622Z,9.20
2018-11-02T06:55:45.392Z,9.30
2018-11-02T06:56:51.014Z,9.30
2018-11-02T06:57:56.662Z,9.30
2018-11-02T06:59:02.142Z,9.30
2018-11-02T07:00:11.905Z,9.30
2018-11-02T07:01:17.182Z,9.30
2018-11-02T07:02:22.774Z,9.40
2018-11-02T07:03:28.312Z,9.40
2018-11-02T07:04:33.778Z,9.40
2018-11-02T07:05:39.312Z,9.40
2018-11-02T07:06:44.786Z,9.40
2018-11-02T07:07:50.330Z,9.50
2018-11-02T07:08:55.764Z,9.50
2018-11-02T07:10:01.255Z,9.50
2018-11-02T07:11:06.769Z,9.50
2018-11-02T07:12:12.217Z,9.50
2018-11-02T07:13:17.741Z,9.60
2018-11-02T07:14:23.215Z,9.50
2018-11-02T07:15:28.755Z,9.50
2018-11-02T07:16:34.257Z,9.50
2018-11-02T07:17:39.746Z,9.50
2018-11-02T07:18:45.216Z,9.50
2018-11-02T07:19:50.628Z,9.50
2018-11-02T07:20:56.056Z,9.40
2018-11-02T07:22:01.574Z,9.50
2018-11-02T07:23:08.310Z,9.40
2018-11-02T07:24:13.857Z,9.40
2018-11-02T07:25:19.391Z,9.50
2018-11-02T07:26:25.236Z,9.50
2018-11-02T07:27:31.038Z,9.40
2018-11-02T07:28:36.602Z,9.50
2018-11-02T07:29:42.024Z,9.50
2018-11-02T07:30:47.430Z,9.50
2018-11-02T07:31:52.864Z,9.50
2018-11-02T07:32:58.386Z,9.50
2018-11-02T07:34:03.860Z,9.50
2018-11-02T07:35:10.256Z,9.50
2018-11-02T07:36:15.690Z,9.50
2018-11-02T07:37:21.108Z,9.50
2018-11-02T07:38:26.575Z,9.50
2018-11-02T07:39:33.555Z,9.50
2018-11-02T07:40:38.972Z,9.50
2018-11-02T07:41:44.409Z,9.50
2018-11-02T07:42:50.044Z,9.50
2018-11-02T07:43:55.721Z,9.50
2018-11-02T07:45:01.226Z,9.50
2018-11-02T07:46:06.834Z,9.60
2018-11-02T07:47:12.313Z,9.60
2018-11-02T07:48:17.734Z,9.60
2018-11-02T07:49:23.295Z,9.60
2018-11-02T07:50:28.749Z,9.60
2018-11-02T07:51:34.212Z,9.60
2018-11-02T07:52:39.770Z,9.50
2018-11-02T07:53:45.093Z,9.60
2018-11-02T07:54:50.606Z,9.60
2018-11-02T07:55:56.032Z,9.60
2018-11-02T07:57:01.480Z,9.60
2018-11-02T07:58:07.178Z,9.60
2018-11-02T07:59:12.708Z,9.50
2018-11-02T08:00:18.684Z,9.50
2018-11-02T08:01:24.124Z,9.50
2018-11-02T08:02:29.615Z,9.50
2018-11-02T08:03:35.199Z,9.50
2018-11-02T08:04:40.672Z,9.50
2018-11-02T08:05:46.256Z,9.40
2018-11-02T08:06:51.782Z,9.40
2018-11-02T08:07:57.380Z,9.40
2018-11-02T08:09:02.842Z,9.40
2018-11-02T08:10:08.985Z,9.40
2018-11-02T08:11:14.471Z,9.50
2018-11-02T08:12:19.848Z,9.60
2018-11-02T08:13:25.278Z,9.60
2018-11-02T08:14:30.808Z,9.70
2018-11-02T08:15:36.290Z,9.80
2018-11-02T08:16:42.043Z,9.90
2018-11-02T08:17:47.621Z,9.90
2018-11-02T08:18:52.964Z,9.90
2018-11-02T08:19:58.441Z,10.00
2018-11-02T08:21:03.957Z,10.00
2018-11-02T08:22:09.388Z,10.10
2018-11-02T08:23:15.065Z,10.10
2018-11-02T08:24:20.521Z,10.20
2018-11-02T08:25:25.938Z,10.30
2018-11-02T08:26:31.462Z,10.30
2018-11-02T08:27:36.901Z,10.50
2018-11-02T08:28:42.421Z,10.60
2018-11-02T08:29:47.912Z,10.80
2018-11-02T08:30:53.411Z,11.00
2018-11-02T08:31:58.897Z,11.10
2018-11-02T08:33:04.356Z,11.20
2018-11-02T08:34:09.817Z,11.30
2018-11-02T08:35:15.297Z,11.40
2018-11-02T08:36:20.758Z,11.40
2018-11-02T08:37:26.209Z,11.40
2018-11-02T08:38:31.682Z,11.50
2018-11-02T08:39:37.156Z,11.60
2018-11-02T08:40:42.734Z,11.50
2018-11-02T08:41:48.185Z,11.60
2018-11-02T08:42:53.646Z,11.50
2018-11-02T08:43:59.114Z,11.50
2018-11-02T08:45:04.701Z,11.50
2018-11-02T08:46:10.145Z,11.40
2018-11-02T08:47:15.616Z,11.40
2018-11-02T08:48:21.210Z,11.40
2018-11-02T08:49:26.741Z,11.30
2018-11-02T08:50:32.529Z,11.30
2018-11-02T08:51:38.099Z,11.20
2018-11-02T08:52:43.768Z,11.20
2018-11-02T08:53:49.278Z,11.20
2018-11-02T08:54:54.873Z,11.20
2018-11-02T08:56:00.358Z,11.10
2018-11-02T08:57:05.959Z,11.10
2018-11-02T08:58:11.488Z,11.00
2018-11-02T08:59:17.017Z,10.90
2018-11-02T09:00:22.427Z,10.80
2018-11-02T09:01:27.943Z,10.80
2018-11-02T09:02:33.445Z,10.70
2018-11-02T09:03:38.884Z,10.60
2018-11-02T09:04:44.438Z,10.50
2018-11-02T09:05:49.955Z,10.40
2018-11-02T09:06:55.471Z,10.30
2018-11-02T09:08:01.181Z,10.30
2018-11-02T09:09:08.897Z,10.30
2018-11-02T09:10:14.397Z,10.20
2018-11-02T09:11:20.060Z,10.20
2018-11-02T09:12:25.586Z,10.30
2018-11-02T09:13:31.132Z,10.30
2018-11-02T09:14:36.630Z,10.40
2018-11-02T09:15:42.120Z,10.50
2018-11-02T09:16:47.657Z,10.50
2018-11-02T09:17:53.257Z,10.60
2018-11-02T09:19:04.969Z,10.70
2018-11-02T09:20:11.116Z,10.70
2018-11-02T09:21:16.848Z,10.80
2018-11-02T09:22:22.621Z,10.90
2018-11-02T09:23:28.190Z,10.90
2018-11-02T09:24:33.770Z,10.90
2018-11-02T09:25:39.325Z,10.90
2018-11-02T09:26:44.852Z,11.00
2018-11-02T09:27:50.494Z,10.90
2018-11-02T09:28:56.740Z,10.90
2018-11-02T09:30:02.229Z,10.90
2018-11-02T09:31:07.736Z,10.90
2018-11-02T09:32:13.262Z,10.90
2018-11-02T09:33:18.786Z,10.90
2018-11-02T09:34:24.425Z,10.90
2018-11-02T09:35:30.123Z,10.90
2018-11-02T09:36:35.554Z,10.90
2018-11-02T09:37:41.344Z,10.90
2018-11-02T09:38:46.928Z,10.80
2018-11-02T09:39:52.427Z,10.80
2018-11-02T09:40:57.977Z,10.80
2018-11-02T09:42:03.512Z,10.80
2018-11-02T09:43:08.981Z,10.80
2018-11-02T09:44:14.539Z,10.80
2018-11-02T09:45:20.109Z,10.80
2018-11-02T09:46:25.594Z,10.90
2018-11-02T09:47:31.119Z,10.90
2018-11-02T09:48:36.595Z,10.90
2018-11-02T09:49:42.077Z,10.90
2018-11-02T09:50:47.629Z,11.00
2018-11-02T09:51:53.123Z,11.00
2018-11-02T09:52:58.683Z,11.00
2018-11-02T09:54:04.160Z,11.10
2018-11-02T09:55:12.785Z,11.10
2018-11-02T09:56:18.368Z,11.10
2018-11-02T09:57:23.910Z,11.10
2018-11-02T09:58:29.380Z,11.10
2018-11-02T09:59:34.844Z,11.10
2018-11-02T10:00:40.293Z,11.10
2018-11-02T10:01:45.793Z,11.10
2018-11-02T10:02:51.356Z,11.10
2018-11-02T10:03:57.000Z,11.10
2018-11-02T10:05:02.504Z,11.10
2018-11-02T10:06:08.034Z,11.10
2018-11-02T10:07:13.740Z,11.10
2018-11-02T10:08:19.368Z,11.20
2018-11-02T10:09:24.889Z,11.20
2018-11-02T10:10:30.370Z,11.20
2018-11-02T10:11:35.840Z,11.30
2018-11-02T10:12:41.510Z,11.20
2018-11-02T10:13:46.973Z,11.20
2018-11-02T10:14:52.452Z,11.30
2018-11-02T10:15:58.094Z,11.30
2018-11-02T10:17:03.563Z,11.30
2018-11-02T10:18:09.195Z,11.30
2018-11-02T10:19:14.758Z,11.40
2018-11-02T10:20:20.316Z,11.40
2018-11-02T10:21:26.120Z,11.40
2018-11-02T10:22:31.625Z,11.50
2018-11-02T10:23:37.142Z,11.40
2018-11-02T10:24:42.649Z,11.40
2018-11-02T10:25:48.217Z,11.50
2018-11-02T10:26:53.824Z,11.50
2018-11-02T10:27:59.418Z,11.50
2018-11-02T10:29:05.615Z,11.60
2018-11-02T10:30:13.170Z,11.70
2018-11-02T10:31:18.800Z,11.70
2018-11-02T10:32:24.496Z,11.70
2018-11-02T10:33:30.118Z,11.80
2018-11-02T10:34:35.701Z,11.80
2018-11-02T10:35:41.539Z,11.70
2018-11-02T10:36:46.973Z,11.70
2018-11-02T10:37:52.881Z,11.70
2018-11-02T10:38:59.158Z,11.80
2018-11-02T10:40:06.814Z,11.80
2018-11-02T10:41:16.847Z,11.90
2018-11-02T10:42:22.561Z,11.80
2018-11-02T10:43:30.200Z,11.90
2018-11-02T10:44:41.147Z,11.80
2018-11-02T10:45:48.692Z,11.90
2018-11-02T10:46:54.152Z,11.90
2018-11-02T10:48:00.041Z,11.90
2018-11-02T10:49:05.843Z,11.90
2018-11-02T10:50:11.340Z,11.90
2018-11-02T10:51:16.892Z,11.90
2018-11-02T10:52:22.336Z,11.90
2018-11-02T10:53:27.937Z,11.90
2018-11-02T10:54:33.899Z,11.90
2018-11-02T10:55:39.446Z,11.90
2018-11-02T10:56:45.144Z,11.90
2018-11-02T10:57:50.625Z,11.90
2018-11-02T10:58:56.105Z,12.00
2018-11-02T11:00:01.666Z,12.00
2018-11-02T11:01:12.565Z,12.10
2018-11-02T11:02:24.040Z,12.20
2018-11-02T11:03:29.638Z,12.20
2018-11-02T11:04:35.379Z,12.20
2018-11-02T11:05:40.982Z,12.10
2018-11-02T11:06:46.543Z,12.00
2018-11-02T11:07:52.029Z,12.00
2018-11-02T11:08:57.585Z,12.00
2018-11-02T11:10:03.076Z,12.00
2018-11-02T11:11:08.577Z,12.00
2018-11-02T11:12:14.131Z,12.00
2018-11-02T11:13:20.010Z,12.00
2018-11-02T11:14:25.218Z,12.10
2018-11-02T11:15:30.831Z,12.10
2018-11-02T11:16:36.391Z,12.20
2018-11-02T11:17:41.893Z,12.20
2018-11-02T11:18:47.433Z,12.20
2018-11-02T11:19:52.916Z,12.10
2018-11-02T11:20:58.445Z,12.10
2018-11-02T11:22:04.019Z,12.10
2018-11-02T11:23:09.608Z,12.10
2018-11-02T11:24:15.115Z,12.10
2018-11-02T11:25:20.581Z,12.10
2018-11-02T11:26:26.147Z,12.20
2018-11-02T11:27:31.718Z,12.30
2018-11-02T11:28:37.287Z,12.40
2018-11-02T11:29:42.829Z,12.50
2018-11-02T11:30:48.334Z,12.60
2018-11-02T11:31:53.869Z,12.70
2018-11-02T11:32:59.375Z,12.80
2018-11-02T11:34:05.697Z,12.80
2018-11-02T11:35:13.373Z,12.80
2018-11-02T11:36:18.872Z,12.70
2018-11-02T11:37:24.462Z,12.70
2018-11-02T11:38:30.086Z,12.70
2018-11-02T11:39:35.591Z,12.80
2018-11-02T11:40:41.222Z,12.70
2018-11-02T11:41:46.757Z,12.70
2018-11-02T11:42:52.403Z,12.70
2018-11-02T11:43:57.896Z,12.80
2018-11-02T11:45:03.568Z,12.80
2018-11-02T11:46:09.105Z,12.70
2018-11-02T11:47:14.585Z,12.70
2018-11-02T11:48:20.053Z,12.70
2018-11-02T11:49:25.621Z,12.70
2018-11-02T11:50:31.233Z,12.60
2018-11-02T11:51:36.786Z,12.60
2018-11-02T11:52:42.933Z,12.50
2018-11-02T11:53:48.417Z,12.60
2018-11-02T11:54:54.145Z,12.60
2018-11-02T11:55:59.733Z,12.70
2018-11-02T11:57:05.208Z,12.60
2018-11-02T11:58:10.886Z,12.60
2018-11-02T11:59:16.506Z,12.60
2018-11-02T12:00:23.369Z,12.60
2018-11-02T12:01:28.866Z,12.60
2018-11-02T12:02:34.409Z,12.60
2018-11-02T12:03:39.906Z,12.50
2018-11-02T12:04:45.529Z,12.40
2018-11-02T12:05:51.084Z,12.50
2018-11-02T12:06:56.557Z,12.40
2018-11-02T12:08:02.014Z,12.40
2018-11-02T12:09:09.059Z,12.50
2018-11-02T12:10:18.801Z,12.40
2018-11-02T12:11:24.367Z,12.40
2018-11-02T12:12:29.943Z,12.30
2018-11-02T12:13:35.468Z,12.30
2018-11-02T12:14:40.932Z,12.30
2018-11-02T12:15:46.423Z,12.40
2018-11-02T12:16:52.006Z,12.40
2018-11-02T12:17:57.538Z,12.40
2018-11-02T12:19:03.009Z,12.50
2018-11-02T12:20:13.037Z,12.50
2018-11-02T12:21:18.541Z,12.50
2018-11-02T12:22:24.145Z,12.40
2018-11-02T12:23:29.719Z,12.40
2018-11-02T12:24:35.225Z,12.40
2018-11-02T12:25:40.701Z,12.40
2018-11-02T12:26:46.164Z,12.40
2018-11-02T12:27:51.758Z,12.50
2018-11-02T12:28:57.320Z,12.50
2018-11-02T12:30:02.726Z,12.50
2018-11-02T12:31:08.266Z,12.50
2018-11-02T12:32:13.874Z,12.60
2018-11-02T12:33:19.441Z,12.60
2018-11-02T12:34:24.941Z,12.70
2018-11-02T12:35:30.401Z,12.80
2018-11-02T12:36:35.850Z,12.80
2018-11-02T12:37:41.333Z,12.80
2018-11-02T12:38:46.879Z,12.80
2018-11-02T12:39:52.384Z,12.70
2018-11-02T12:40:57.885Z,12.60
2018-11-02T12:42:03.404Z,12.60
2018-11-02T12:43:09.021Z,12.50
2018-11-02T12:44:14.599Z,12.50
2018-11-02T12:45:21.162Z,12.50
2018-11-02T12:46:26.649Z,12.40
2018-11-02T12:47:32.120Z,12.30
2018-11-02T12:48:37.791Z,12.30
2018-11-02T12:49:43.495Z,12.20
2018-11-02T12:50:48.716Z,12.20
2018-11-02T12:51:54.193Z,12.10
2018-11-02T12:53:00.501Z,12.00
2018-11-02T12:54:06.272Z,12.00
2018-11-02T12:55:12.297Z,11.90
2018-11-02T12:56:17.754Z,11.90
2018-11-02T12:57:23.272Z,11.90
2018-11-02T12:58:28.813Z,11.80
2018-11-02T12:59:34.334Z,11.80
2018-11-02T13:00:39.852Z,11.80
2018-11-02T13:01:45.341Z,11.80
2018-11-02T13:02:51.516Z,11.80
2018-11-02T13:03:57.024Z,11.80
2018-11-02T13:05:02.600Z,11.70
2018-11-02T13:06:08.170Z,11.70
2018-11-02T13:07:13.718Z,11.70
2018-11-02T13:08:19.181Z,11.70
2018-11-02T13:09:24.853Z,11.70
2018-11-02T13:10:30.453Z,11.70
2018-11-02T13:11:36.106Z,11.70
2018-11-02T13:12:41.615Z,11.70
2018-11-02T13:13:47.093Z,11.70
2018-11-02T13:14:52.535Z,11.70
2018-11-02T13:15:58.087Z,11.70
2018-11-02T13:17:03.855Z,11.60
2018-11-02T13:18:09.429Z,11.60
2018-11-02T13:19:14.928Z,11.60
2018-11-02T13:20:20.558Z,11.60
2018-11-02T13:21:26.107Z,11.50
2018-11-02T13:22:31.610Z,11.50
2018-11-02T13:23:37.084Z,11.50
2018-11-02T13:24:42.677Z,11.50
2018-11-02T13:25:48.313Z,11.40
2018-11-02T13:26:53.834Z,11.40
2018-11-02T13:27:59.385Z,11.40
2018-11-02T13:29:04.894Z,11.40
2018-11-02T13:30:11.020Z,11.30
2018-11-02T13:31:16.417Z,11.30
2018-11-02T13:32:21.860Z,11.30
2018-11-02T13:33:27.340Z,11.30
2018-11-02T13:34:32.777Z,11.30
2018-11-02T13:35:38.331Z,11.30
2018-11-02T13:36:43.943Z,11.30
2018-11-02T13:37:50.227Z,11.20
2018-11-02T13:38:55.772Z,11.20
2018-11-02T13:40:01.295Z,11.30
2018-11-02T13:41:06.913Z,11.30
2018-11-02T13:42:12.406Z,11.20
2018-11-02T13:43:17.935Z,11.20
2018-11-02T13:44:23.391Z,11.20
2018-11-02T13:45:28.861Z,11.20
2018-11-02T13:46:34.370Z,11.20
2018-11-02T13:47:40.273Z,11.20
2018-11-02T13:48:45.728Z,11.20
2018-11-02T13:49:51.252Z,11.20
2018-11-02T13:50:56.666Z,11.20
2018-11-02T13:52:02.159Z,11.20
2018-11-02T13:53:08.130Z,11.20
2018-11-02T13:54:13.777Z,11.20
2018-11-02T13:55:19.377Z,11.20
2018-11-02T13:56:24.859Z,11.30
2018-11-02T13:57:30.364Z,11.30
2018-11-02T13:58:35.831Z,11.30
2018-11-02T13:59:41.317Z,11.30
2018-11-02T14:00:46.804Z,11.40
2018-11-02T14:01:52.261Z,11.40
2018-11-02T14:02:57.824Z,11.40
2018-11-02T14:04:03.273Z,11.40
2018-11-02T14:05:10.950Z,11.40
2018-11-02T14:06:16.440Z,11.40
2018-11-02T14:07:21.916Z,11.40
2018-11-02T14:08:27.476Z,11.40
2018-11-02T14:09:32.965Z,11.30
2018-11-02T14:10:38.390Z,11.30
2018-11-02T14:11:44.004Z,11.20
2018-11-02T14:12:49.472Z,11.20
2018-11-02T14:13:55.021Z,11.00